sensor_id;sensor_type;location;lat;lon;timestamp;P1;durP1;ratioP1;P2;durP2;ratioP2
65581;SDS011;52231;40.090;18.348;2023-08-08T00:04:50;11.85;;;2.70;;
65581;SDS011;52231;40.090;18.348;2023-08-08T00:09:45;14.32;;;2.58;;
65581;SDS011;52231;40.090;18.348;2023-08-08T00:12:14;9.45;;;2.30;;
65581;SDS011;52231;40.090;18.348;2023-08-08T00:14:42;9.07;;;2.03;;
65581;SDS011;52231;40.090;18.348;2023-08-08T00:19:38;6.10;;;1.80;;
65581;SDS011;52231;40.090;18.348;2023-08-08T00:24:34;6.75;;;1.48;;
65581;SDS011;52231;40.090;18.348;2023-08-08T00:29:30;5.78;;;1.52;;
65581;SDS011;52231;40.090;18.348;2023-08-08T00:31:58;6.13;;;1.40;;
65581;SDS011;52231;40.090;18.348;2023-08-08T00:34:26;6.65;;;1.50;;
65581;SDS011;52231;40.090;18.348;2023-08-08T00:36:54;6.38;;;1.50;;
65581;SDS011;52231;40.090;18.348;2023-08-08T00:39:22;7.10;;;1.60;;
65581;SDS011;52231;40.090;18.348;2023-08-08T00:41:50;7.47;;;1.60;;
65581;SDS011;52231;40.090;18.348;2023-08-08T00:44:19;4.18;;;1.33;;
65581;SDS011;52231;40.090;18.348;2023-08-08T00:46:47;9.57;;;1.45;;
65581;SDS011;52231;40.090;18.348;2023-08-08T00:49:16;10.23;;;1.58;;
65581;SDS011;52231;40.090;18.348;2023-08-08T00:51:44;7.97;;;1.58;;
65581;SDS011;52231;40.090;18.348;2023-08-08T00:54:13;5.63;;;1.67;;
65581;SDS011;52231;40.090;18.348;2023-08-08T00:56:41;7.68;;;1.77;;
65581;SDS011;52231;40.090;18.348;2023-08-08T00:59:10;8.05;;;1.75;;
65581;SDS011;52231;40.090;18.348;2023-08-08T01:01:40;7.07;;;1.63;;
65581;SDS011;52231;40.090;18.348;2023-08-08T01:04:08;5.05;;;1.40;;
65581;SDS011;52231;40.090;18.348;2023-08-08T01:09:28;8.77;;;1.73;;
65581;SDS011;52231;40.090;18.348;2023-08-08T01:12:01;6.53;;;1.50;;
65581;SDS011;52231;40.090;18.348;2023-08-08T01:14:31;8.50;;;1.70;;
65581;SDS011;52231;40.090;18.348;2023-08-08T01:17:01;7.30;;;1.58;;
65581;SDS011;52231;40.090;18.348;2023-08-08T01:19:31;10.07;;;1.70;;
65581;SDS011;52231;40.090;18.348;2023-08-08T01:22:02;9.07;;;2.00;;
65581;SDS011;52231;40.090;18.348;2023-08-08T01:24:34;10.45;;;2.00;;
65581;SDS011;52231;40.090;18.348;2023-08-08T01:27:04;12.85;;;2.30;;
65581;SDS011;52231;40.090;18.348;2023-08-08T01:29:33;10.38;;;1.90;;
65581;SDS011;52231;40.090;18.348;2023-08-08T01:34:30;9.38;;;1.83;;
65581;SDS011;52231;40.090;18.348;2023-08-08T01:41:59;12.10;;;2.25;;
65581;SDS011;52231;40.090;18.348;2023-08-08T01:44:28;13.15;;;1.83;;
65581;SDS011;52231;40.090;18.348;2023-08-08T01:46:58;8.07;;;2.38;;
65581;SDS011;52231;40.090;18.348;2023-08-08T01:51:55;14.30;;;2.08;;
65581;SDS011;52231;40.090;18.348;2023-08-08T01:56:51;9.82;;;2.28;;
65581;SDS011;52231;40.090;18.348;2023-08-08T02:01:47;9.63;;;2.22;;
65581;SDS011;52231;40.090;18.348;2023-08-08T02:04:15;10.27;;;2.00;;
65581;SDS011;52231;40.090;18.348;2023-08-08T02:06:43;9.77;;;2.38;;
65581;SDS011;52231;40.090;18.348;2023-08-08T02:09:11;14.05;;;2.42;;
65581;SDS011;52231;40.090;18.348;2023-08-08T02:11:42;9.75;;;2.20;;
65581;SDS011;52231;40.090;18.348;2023-08-08T02:14:10;11.05;;;2.25;;
65581;SDS011;52231;40.090;18.348;2023-08-08T02:16:38;9.57;;;2.13;;
65581;SDS011;52231;40.090;18.348;2023-08-08T02:19:07;12.48;;;2.17;;
65581;SDS011;52231;40.090;18.348;2023-08-08T02:21:35;11.23;;;2.25;;
65581;SDS011;52231;40.090;18.348;2023-08-08T02:24:03;9.65;;;2.33;;
65581;SDS011;52231;40.090;18.348;2023-08-08T02:26:31;13.85;;;2.70;;
65581;SDS011;52231;40.090;18.348;2023-08-08T02:28:59;12.55;;;2.50;;
65581;SDS011;52231;40.090;18.348;2023-08-08T02:31:27;11.27;;;2.40;;
65581;SDS011;52231;40.090;18.348;2023-08-08T02:33:56;11.57;;;2.33;;
65581;SDS011;52231;40.090;18.348;2023-08-08T02:36:24;13.77;;;2.60;;
65581;SDS011;52231;40.090;18.348;2023-08-08T02:38:52;12.43;;;2.85;;
65581;SDS011;52231;40.090;18.348;2023-08-08T02:43:50;11.10;;;2.13;;
65581;SDS011;52231;40.090;18.348;2023-08-08T02:46:18;19.88;;;2.80;;
65581;SDS011;52231;40.090;18.348;2023-08-08T02:51:14;11.13;;;2.42;;
65581;SDS011;52231;40.090;18.348;2023-08-08T02:53:42;10.90;;;2.25;;
65581;SDS011;52231;40.090;18.348;2023-08-08T02:58:41;14.35;;;2.72;;
65581;SDS011;52231;40.090;18.348;2023-08-08T03:03:38;9.90;;;2.40;;
65581;SDS011;52231;40.090;18.348;2023-08-08T03:08:34;12.98;;;2.60;;
65581;SDS011;52231;40.090;18.348;2023-08-08T03:11:03;14.18;;;2.30;;
65581;SDS011;52231;40.090;18.348;2023-08-08T03:13:33;11.35;;;2.72;;
65581;SDS011;52231;40.090;18.348;2023-08-08T03:18:31;13.27;;;2.63;;
65581;SDS011;52231;40.090;18.348;2023-08-08T03:20:59;15.07;;;2.42;;
65581;SDS011;52231;40.090;18.348;2023-08-08T03:23:31;11.02;;;2.35;;
65581;SDS011;52231;40.090;18.348;2023-08-08T03:25:59;17.45;;;2.58;;
65581;SDS011;52231;40.090;18.348;2023-08-08T03:30:57;11.55;;;2.38;;
65581;SDS011;52231;40.090;18.348;2023-08-08T03:33:27;11.80;;;2.92;;
65581;SDS011;52231;40.090;18.348;2023-08-08T03:38:23;8.98;;;2.45;;
65581;SDS011;52231;40.090;18.348;2023-08-08T03:40:51;12.45;;;2.80;;
65581;SDS011;52231;40.090;18.348;2023-08-08T03:43:19;14.15;;;2.92;;
65581;SDS011;52231;40.090;18.348;2023-08-08T03:45:47;12.93;;;2.60;;
65581;SDS011;52231;40.090;18.348;2023-08-08T03:48:16;11.07;;;2.60;;
65581;SDS011;52231;40.090;18.348;2023-08-08T03:50:44;15.68;;;3.17;;
65581;SDS011;52231;40.090;18.348;2023-08-08T03:53:13;10.70;;;3.30;;
65581;SDS011;52231;40.090;18.348;2023-08-08T03:55:41;11.90;;;2.97;;
65581;SDS011;52231;40.090;18.348;2023-08-08T03:58:10;10.57;;;2.95;;
65581;SDS011;52231;40.090;18.348;2023-08-08T04:00:38;12.98;;;2.88;;
65581;SDS011;52231;40.090;18.348;2023-08-08T04:03:13;12.52;;;3.03;;
65581;SDS011;52231;40.090;18.348;2023-08-08T04:05:46;11.43;;;2.85;;
65581;SDS011;52231;40.090;18.348;2023-08-08T04:08:15;10.95;;;2.35;;
65581;SDS011;52231;40.090;18.348;2023-08-08T04:10:44;9.88;;;2.60;;
65581;SDS011;52231;40.090;18.348;2023-08-08T04:13:14;12.32;;;2.72;;
65581;SDS011;52231;40.090;18.348;2023-08-08T04:18:11;12.40;;;2.58;;
65581;SDS011;52231;40.090;18.348;2023-08-08T04:20:39;8.25;;;2.88;;
65581;SDS011;52231;40.090;18.348;2023-08-08T04:23:07;12.80;;;2.83;;
65581;SDS011;52231;40.090;18.348;2023-08-08T04:25:36;11.02;;;2.75;;
65581;SDS011;52231;40.090;18.348;2023-08-08T04:28:05;12.05;;;3.08;;
65581;SDS011;52231;40.090;18.348;2023-08-08T04:30:33;11.63;;;3.10;;
65581;SDS011;52231;40.090;18.348;2023-08-08T04:33:02;13.90;;;2.70;;
65581;SDS011;52231;40.090;18.348;2023-08-08T04:35:31;12.93;;;3.38;;
65581;SDS011;52231;40.090;18.348;2023-08-08T04:37:59;13.02;;;3.38;;
65581;SDS011;52231;40.090;18.348;2023-08-08T04:40:27;12.27;;;3.25;;
65581;SDS011;52231;40.090;18.348;2023-08-08T04:42:55;11.68;;;2.90;;
65581;SDS011;52231;40.090;18.348;2023-08-08T04:45:23;15.35;;;3.47;;
65581;SDS011;52231;40.090;18.348;2023-08-08T04:50:19;14.70;;;3.17;;
65581;SDS011;52231;40.090;18.348;2023-08-08T04:55:15;11.88;;;2.75;;
65581;SDS011;52231;40.090;18.348;2023-08-08T04:57:43;12.80;;;2.90;;
65581;SDS011;52231;40.090;18.348;2023-08-08T05:00:11;11.10;;;2.60;;
65581;SDS011;52231;40.090;18.348;2023-08-08T05:02:41;9.80;;;2.30;;
65581;SDS011;52231;40.090;18.348;2023-08-08T05:07:37;16.30;;;2.00;;
65581;SDS011;52231;40.090;18.348;2023-08-08T05:10:05;11.65;;;2.20;;
65581;SDS011;52231;40.090;18.348;2023-08-08T05:12:34;7.72;;;1.50;;
65581;SDS011;52231;40.090;18.348;2023-08-08T05:15:02;7.47;;;1.73;;
65581;SDS011;52231;40.090;18.348;2023-08-08T05:17:31;13.30;;;2.00;;
65581;SDS011;52231;40.090;18.348;2023-08-08T05:20:02;7.30;;;1.98;;
65581;SDS011;52231;40.090;18.348;2023-08-08T05:22:31;8.60;;;2.22;;
65581;SDS011;52231;40.090;18.348;2023-08-08T05:24:59;8.75;;;2.65;;
65581;SDS011;52231;40.090;18.348;2023-08-08T05:27:27;7.10;;;2.33;;
65581;SDS011;52231;40.090;18.348;2023-08-08T05:29:56;7.85;;;2.25;;
65581;SDS011;52231;40.090;18.348;2023-08-08T05:32:24;6.93;;;2.28;;
65581;SDS011;52231;40.090;18.348;2023-08-08T05:37:20;10.35;;;2.50;;
65581;SDS011;52231;40.090;18.348;2023-08-08T05:42:15;12.90;;;2.85;;
65581;SDS011;52231;40.090;18.348;2023-08-08T05:47:11;6.03;;;1.90;;
65581;SDS011;52231;40.090;18.348;2023-08-08T05:49:40;10.00;;;2.10;;
65581;SDS011;52231;40.090;18.348;2023-08-08T05:52:10;4.18;;;1.40;;
65581;SDS011;52231;40.090;18.348;2023-08-08T05:57:06;9.02;;;1.77;;
65581;SDS011;52231;40.090;18.348;2023-08-08T05:59:34;11.10;;;1.58;;
65581;SDS011;52231;40.090;18.348;2023-08-08T06:02:03;9.57;;;1.40;;
65581;SDS011;52231;40.090;18.348;2023-08-08T06:04:31;6.07;;;1.52;;
65581;SDS011;52231;40.090;18.348;2023-08-08T06:06:59;8.02;;;1.35;;
65581;SDS011;52231;40.090;18.348;2023-08-08T06:09:28;6.38;;;1.42;;
65581;SDS011;52231;40.090;18.348;2023-08-08T06:11:56;5.63;;;1.67;;
65581;SDS011;52231;40.090;18.348;2023-08-08T06:14:24;11.30;;;1.40;;
65581;SDS011;52231;40.090;18.348;2023-08-08T06:19:20;7.35;;;1.60;;
65581;SDS011;52231;40.090;18.348;2023-08-08T06:24:16;7.03;;;1.75;;
65581;SDS011;52231;40.090;18.348;2023-08-08T06:26:44;7.97;;;1.65;;
65581;SDS011;52231;40.090;18.348;2023-08-08T06:29:25;6.85;;;1.55;;
65581;SDS011;52231;40.090;18.348;2023-08-08T06:31:54;8.35;;;1.73;;
65581;SDS011;52231;40.090;18.348;2023-08-08T06:34:22;6.53;;;1.58;;
65581;SDS011;52231;40.090;18.348;2023-08-08T06:36:50;11.40;;;1.48;;
65581;SDS011;52231;40.090;18.348;2023-08-08T06:39:18;4.85;;;1.40;;
65581;SDS011;52231;40.090;18.348;2023-08-08T06:41:48;6.10;;;1.80;;
65581;SDS011;52231;40.090;18.348;2023-08-08T06:44:20;8.18;;;1.83;;
65581;SDS011;52231;40.090;18.348;2023-08-08T06:46:49;9.27;;;1.98;;
65581;SDS011;52231;40.090;18.348;2023-08-08T06:49:17;8.48;;;1.95;;
65581;SDS011;52231;40.090;18.348;2023-08-08T06:51:45;7.35;;;1.77;;
65581;SDS011;52231;40.090;18.348;2023-08-08T06:54:13;8.35;;;1.88;;
65581;SDS011;52231;40.090;18.348;2023-08-08T06:56:41;7.05;;;1.70;;
65581;SDS011;52231;40.090;18.348;2023-08-08T07:01:37;7.13;;;1.70;;
65581;SDS011;52231;40.090;18.348;2023-08-08T07:04:05;6.53;;;1.58;;
65581;SDS011;52231;40.090;18.348;2023-08-08T07:06:33;5.55;;;1.73;;
65581;SDS011;52231;40.090;18.348;2023-08-08T07:09:01;4.68;;;1.50;;
65581;SDS011;52231;40.090;18.348;2023-08-08T07:11:30;8.65;;;1.70;;
65581;SDS011;52231;40.090;18.348;2023-08-08T07:13:58;4.88;;;1.50;;
65581;SDS011;52231;40.090;18.348;2023-08-08T07:16:26;6.97;;;1.70;;
65581;SDS011;52231;40.090;18.348;2023-08-08T07:18:54;3.70;;;1.42;;
65581;SDS011;52231;40.090;18.348;2023-08-08T07:21:22;2.90;;;1.33;;
65581;SDS011;52231;40.090;18.348;2023-08-08T07:23:51;6.22;;;1.60;;
65581;SDS011;52231;40.090;18.348;2023-08-08T07:26:19;2.75;;;1.23;;
65581;SDS011;52231;40.090;18.348;2023-08-08T07:28:47;3.63;;;1.38;;
65581;SDS011;52231;40.090;18.348;2023-08-08T07:31:15;5.38;;;1.48;;
65581;SDS011;52231;40.090;18.348;2023-08-08T07:33:44;4.95;;;1.30;;
65581;SDS011;52231;40.090;18.348;2023-08-08T07:36:29;1.90;;;1.20;;
65581;SDS011;52231;40.090;18.348;2023-08-08T07:38:57;2.83;;;1.30;;
65581;SDS011;52231;40.090;18.348;2023-08-08T07:41:28;5.80;;;1.33;;
65581;SDS011;52231;40.090;18.348;2023-08-08T07:43:57;5.47;;;1.48;;
65581;SDS011;52231;40.090;18.348;2023-08-08T07:46:25;5.50;;;1.63;;
65581;SDS011;52231;40.090;18.348;2023-08-08T07:48:53;4.55;;;1.63;;
65581;SDS011;52231;40.090;18.348;2023-08-08T07:51:21;5.18;;;1.40;;
65581;SDS011;52231;40.090;18.348;2023-08-08T07:53:50;5.80;;;1.73;;
65581;SDS011;52231;40.090;18.348;2023-08-08T07:56:18;6.75;;;1.77;;
65581;SDS011;52231;40.090;18.348;2023-08-08T07:58:46;6.75;;;1.42;;
65581;SDS011;52231;40.090;18.348;2023-08-08T08:01:14;4.50;;;1.45;;
65581;SDS011;52231;40.090;18.348;2023-08-08T08:03:42;5.50;;;1.73;;
65581;SDS011;52231;40.090;18.348;2023-08-08T08:06:10;10.20;;;1.80;;
65581;SDS011;52231;40.090;18.348;2023-08-08T08:08:39;5.72;;;1.33;;
65581;SDS011;52231;40.090;18.348;2023-08-08T08:11:07;3.80;;;1.40;;
65581;SDS011;52231;40.090;18.348;2023-08-08T08:13:35;8.52;;;2.00;;
65581;SDS011;52231;40.090;18.348;2023-08-08T08:16:03;4.97;;;1.48;;
65581;SDS011;52231;40.090;18.348;2023-08-08T08:18:32;7.45;;;1.50;;
65581;SDS011;52231;40.090;18.348;2023-08-08T08:21:01;5.28;;;1.38;;
65581;SDS011;52231;40.090;18.348;2023-08-08T08:23:29;4.88;;;1.42;;
65581;SDS011;52231;40.090;18.348;2023-08-08T08:25:59;4.28;;;1.40;;
65581;SDS011;52231;40.090;18.348;2023-08-08T08:28:27;5.63;;;1.50;;
65581;SDS011;52231;40.090;18.348;2023-08-08T08:30:55;7.07;;;1.40;;
65581;SDS011;52231;40.090;18.348;2023-08-08T08:33:23;8.30;;;1.88;;
65581;SDS011;52231;40.090;18.348;2023-08-08T08:35:51;3.67;;;1.30;;
65581;SDS011;52231;40.090;18.348;2023-08-08T08:38:19;5.80;;;1.50;;
65581;SDS011;52231;40.090;18.348;2023-08-08T08:40:47;4.15;;;1.35;;
65581;SDS011;52231;40.090;18.348;2023-08-08T08:43:16;3.17;;;1.40;;
65581;SDS011;52231;40.090;18.348;2023-08-08T08:45:46;5.38;;;1.40;;
65581;SDS011;52231;40.090;18.348;2023-08-08T08:50:47;4.43;;;1.63;;
65581;SDS011;52231;40.090;18.348;2023-08-08T08:53:17;5.20;;;1.80;;
65581;SDS011;52231;40.090;18.348;2023-08-08T08:55:45;2.40;;;1.27;;
65581;SDS011;52231;40.090;18.348;2023-08-08T08:58:14;8.52;;;2.05;;
65581;SDS011;52231;40.090;18.348;2023-08-08T09:00:46;7.93;;;1.80;;
65581;SDS011;52231;40.090;18.348;2023-08-08T09:03:15;6.00;;;1.65;;
65581;SDS011;52231;40.090;18.348;2023-08-08T09:05:43;8.73;;;1.60;;
65581;SDS011;52231;40.090;18.348;2023-08-08T09:08:12;5.57;;;1.73;;
65581;SDS011;52231;40.090;18.348;2023-08-08T09:10:42;4.47;;;1.50;;
65581;SDS011;52231;40.090;18.348;2023-08-08T09:13:10;3.45;;;1.40;;
65581;SDS011;52231;40.090;18.348;2023-08-08T09:15:38;5.63;;;1.60;;
65581;SDS011;52231;40.090;18.348;2023-08-08T09:18:07;3.58;;;1.50;;
65581;SDS011;52231;40.090;18.348;2023-08-08T09:20:35;4.75;;;1.45;;
65581;SDS011;52231;40.090;18.348;2023-08-08T09:23:03;4.50;;;1.60;;
65581;SDS011;52231;40.090;18.348;2023-08-08T09:25:31;5.30;;;1.77;;
65581;SDS011;52231;40.090;18.348;2023-08-08T09:28:00;3.75;;;1.67;;
65581;SDS011;52231;40.090;18.348;2023-08-08T09:30:28;5.10;;;1.70;;
65581;SDS011;52231;40.090;18.348;2023-08-08T09:32:58;5.13;;;1.60;;
65581;SDS011;52231;40.090;18.348;2023-08-08T09:35:30;3.75;;;1.45;;
65581;SDS011;52231;40.090;18.348;2023-08-08T09:37:58;6.50;;;1.83;;
65581;SDS011;52231;40.090;18.348;2023-08-08T09:40:27;6.18;;;1.80;;
65581;SDS011;52231;40.090;18.348;2023-08-08T09:42:56;3.58;;;1.60;;
65581;SDS011;52231;40.090;18.348;2023-08-08T09:45:24;4.32;;;1.80;;
65581;SDS011;52231;40.090;18.348;2023-08-08T09:47:52;7.45;;;1.88;;
65581;SDS011;52231;40.090;18.348;2023-08-08T09:50:20;5.90;;;1.70;;
65581;SDS011;52231;40.090;18.348;2023-08-08T09:52:49;4.15;;;1.65;;
65581;SDS011;52231;40.090;18.348;2023-08-08T09:55:17;8.25;;;1.90;;
65581;SDS011;52231;40.090;18.348;2023-08-08T09:57:47;6.20;;;1.63;;
65581;SDS011;52231;40.090;18.348;2023-08-08T10:00:17;4.25;;;1.40;;
65581;SDS011;52231;40.090;18.348;2023-08-08T10:02:48;5.47;;;1.52;;
65581;SDS011;52231;40.090;18.348;2023-08-08T10:05:16;5.22;;;1.70;;
65581;SDS011;52231;40.090;18.348;2023-08-08T10:07:44;5.07;;;1.60;;
65581;SDS011;52231;40.090;18.348;2023-08-08T10:10:12;5.22;;;1.85;;
65581;SDS011;52231;40.090;18.348;2023-08-08T10:12:41;9.02;;;1.70;;
65581;SDS011;52231;40.090;18.348;2023-08-08T10:15:09;3.20;;;1.40;;
65581;SDS011;52231;40.090;18.348;2023-08-08T10:17:39;4.57;;;1.50;;
65581;SDS011;52231;40.090;18.348;2023-08-08T10:20:09;2.75;;;1.38;;
65581;SDS011;52231;40.090;18.348;2023-08-08T10:22:45;4.93;;;1.35;;
65581;SDS011;52231;40.090;18.348;2023-08-08T10:25:24;3.55;;;1.45;;
65581;SDS011;52231;40.090;18.348;2023-08-08T10:28:10;4.43;;;1.40;;
65581;SDS011;52231;40.090;18.348;2023-08-08T10:36:03;4.55;;;1.70;;
65581;SDS011;52231;40.090;18.348;2023-08-08T10:41:15;4.45;;;1.40;;
65581;SDS011;52231;40.090;18.348;2023-08-08T10:43:52;9.32;;;1.55;;
65581;SDS011;52231;40.090;18.348;2023-08-08T10:49:02;6.15;;;1.58;;
65581;SDS011;52231;40.090;18.348;2023-08-08T10:51:36;6.30;;;1.80;;
65581;SDS011;52231;40.090;18.348;2023-08-08T10:54:06;14.23;;;2.13;;
65581;SDS011;52231;40.090;18.348;2023-08-08T10:56:39;2.53;;;1.50;;
65581;SDS011;52231;40.090;18.348;2023-08-08T10:59:27;4.10;;;1.50;;
65581;SDS011;52231;40.090;18.348;2023-08-08T11:02:04;6.45;;;1.80;;
65581;SDS011;52231;40.090;18.348;2023-08-08T11:04:32;5.97;;;1.98;;
65581;SDS011;52231;40.090;18.348;2023-08-08T11:07:02;9.98;;;2.45;;
65581;SDS011;52231;40.090;18.348;2023-08-08T11:09:31;6.65;;;2.00;;
65581;SDS011;52231;40.090;18.348;2023-08-08T11:12:00;7.38;;;1.55;;
65581;SDS011;52231;40.090;18.348;2023-08-08T11:14:28;5.43;;;1.23;;
65581;SDS011;52231;40.090;18.348;2023-08-08T11:16:56;5.90;;;1.70;;
65581;SDS011;52231;40.090;18.348;2023-08-08T11:19:25;5.72;;;1.80;;
65581;SDS011;52231;40.090;18.348;2023-08-08T11:21:53;4.95;;;1.73;;
65581;SDS011;52231;40.090;18.348;2023-08-08T11:24:21;4.97;;;2.30;;
65581;SDS011;52231;40.090;18.348;2023-08-08T11:26:50;6.97;;;2.22;;
65581;SDS011;52231;40.090;18.348;2023-08-08T11:29:25;4.68;;;1.70;;
65581;SDS011;52231;40.090;18.348;2023-08-08T11:32:20;7.03;;;1.90;;
65581;SDS011;52231;40.090;18.348;2023-08-08T11:34:49;8.32;;;2.08;;
65581;SDS011;52231;40.090;18.348;2023-08-08T11:37:17;5.68;;;1.67;;
65581;SDS011;52231;40.090;18.348;2023-08-08T11:39:46;5.88;;;2.10;;
65581;SDS011;52231;40.090;18.348;2023-08-08T11:42:15;6.63;;;2.17;;
65581;SDS011;52231;40.090;18.348;2023-08-08T11:44:43;9.32;;;1.90;;
65581;SDS011;52231;40.090;18.348;2023-08-08T11:47:12;8.05;;;1.75;;
65581;SDS011;52231;40.090;18.348;2023-08-08T11:49:41;7.40;;;1.95;;
65581;SDS011;52231;40.090;18.348;2023-08-08T11:52:09;7.10;;;2.15;;
65581;SDS011;52231;40.090;18.348;2023-08-08T11:54:39;5.85;;;2.03;;
65581;SDS011;52231;40.090;18.348;2023-08-08T11:57:09;6.60;;;1.70;;
65581;SDS011;52231;40.090;18.348;2023-08-08T11:59:40;6.25;;;1.95;;
65581;SDS011;52231;40.090;18.348;2023-08-08T12:02:09;5.70;;;1.98;;
65581;SDS011;52231;40.090;18.348;2023-08-08T12:04:38;6.45;;;1.77;;
65581;SDS011;52231;40.090;18.348;2023-08-08T12:07:06;7.50;;;1.98;;
65581;SDS011;52231;40.090;18.348;2023-08-08T12:09:36;7.45;;;2.00;;
65581;SDS011;52231;40.090;18.348;2023-08-08T12:12:05;4.53;;;1.75;;
65581;SDS011;52231;40.090;18.348;2023-08-08T12:14:37;8.88;;;2.65;;
65581;SDS011;52231;40.090;18.348;2023-08-08T12:17:07;8.88;;;1.95;;
65581;SDS011;52231;40.090;18.348;2023-08-08T12:19:36;6.35;;;2.25;;
65581;SDS011;52231;40.090;18.348;2023-08-08T12:22:05;7.90;;;1.80;;
65581;SDS011;52231;40.090;18.348;2023-08-08T12:24:33;6.10;;;2.30;;
65581;SDS011;52231;40.090;18.348;2023-08-08T12:27:01;5.72;;;1.60;;
65581;SDS011;52231;40.090;18.348;2023-08-08T12:29:30;5.95;;;1.90;;
65581;SDS011;52231;40.090;18.348;2023-08-08T12:31:58;4.78;;;1.65;;
65581;SDS011;52231;40.090;18.348;2023-08-08T12:34:27;10.35;;;1.83;;
65581;SDS011;52231;40.090;18.348;2023-08-08T12:36:55;5.32;;;1.92;;
65581;SDS011;52231;40.090;18.348;2023-08-08T12:39:24;3.38;;;1.65;;
65581;SDS011;52231;40.090;18.348;2023-08-08T12:41:52;4.40;;;1.55;;
65581;SDS011;52231;40.090;18.348;2023-08-08T12:44:25;6.60;;;1.80;;
65581;SDS011;52231;40.090;18.348;2023-08-08T12:46:54;8.55;;;1.90;;
65581;SDS011;52231;40.090;18.348;2023-08-08T12:49:22;4.88;;;1.70;;
65581;SDS011;52231;40.090;18.348;2023-08-08T12:51:51;6.45;;;1.90;;
65581;SDS011;52231;40.090;18.348;2023-08-08T12:54:23;4.72;;;1.88;;
65581;SDS011;52231;40.090;18.348;2023-08-08T12:56:51;6.38;;;1.80;;
65581;SDS011;52231;40.090;18.348;2023-08-08T12:59:20;3.08;;;1.50;;
65581;SDS011;52231;40.090;18.348;2023-08-08T13:01:48;3.47;;;1.77;;
65581;SDS011;52231;40.090;18.348;2023-08-08T13:04:17;5.25;;;1.73;;
65581;SDS011;52231;40.090;18.348;2023-08-08T13:06:48;4.30;;;1.73;;
65581;SDS011;52231;40.090;18.348;2023-08-08T13:09:17;2.85;;;1.50;;
65581;SDS011;52231;40.090;18.348;2023-08-08T13:11:45;5.30;;;1.70;;
65581;SDS011;52231;40.090;18.348;2023-08-08T13:14:13;5.10;;;1.70;;
65581;SDS011;52231;40.090;18.348;2023-08-08T13:16:42;7.97;;;1.70;;
65581;SDS011;52231;40.090;18.348;2023-08-08T13:19:10;5.90;;;1.83;;
65581;SDS011;52231;40.090;18.348;2023-08-08T13:21:38;4.72;;;1.65;;
65581;SDS011;52231;40.090;18.348;2023-08-08T13:24:07;2.90;;;1.40;;
65581;SDS011;52231;40.090;18.348;2023-08-08T13:26:37;6.45;;;2.00;;
65581;SDS011;52231;40.090;18.348;2023-08-08T13:29:08;2.78;;;1.42;;
65581;SDS011;52231;40.090;18.348;2023-08-08T13:31:37;7.25;;;1.75;;
65581;SDS011;52231;40.090;18.348;2023-08-08T13:34:05;3.28;;;1.52;;
65581;SDS011;52231;40.090;18.348;2023-08-08T13:36:33;7.65;;;1.90;;
65581;SDS011;52231;40.090;18.348;2023-08-08T13:39:02;5.43;;;1.65;;
65581;SDS011;52231;40.090;18.348;2023-08-08T13:41:31;5.75;;;1.60;;
65581;SDS011;52231;40.090;18.348;2023-08-08T13:43:59;3.00;;;1.42;;
65581;SDS011;52231;40.090;18.348;2023-08-08T13:46:29;4.03;;;1.70;;
65581;SDS011;52231;40.090;18.348;2023-08-08T13:48:57;3.85;;;1.88;;
65581;SDS011;52231;40.090;18.348;2023-08-08T13:51:25;8.13;;;2.00;;
65581;SDS011;52231;40.090;18.348;2023-08-08T13:53:53;4.65;;;2.10;;
65581;SDS011;52231;40.090;18.348;2023-08-08T13:56:21;6.47;;;1.83;;
65581;SDS011;52231;40.090;18.348;2023-08-08T13:58:50;6.07;;;1.63;;
65581;SDS011;52231;40.090;18.348;2023-08-08T14:01:18;4.70;;;1.75;;
65581;SDS011;52231;40.090;18.348;2023-08-08T14:03:46;6.25;;;1.73;;
65581;SDS011;52231;40.090;18.348;2023-08-08T14:06:14;4.82;;;1.73;;
65581;SDS011;52231;40.090;18.348;2023-08-08T14:08:42;6.35;;;1.92;;
65581;SDS011;52231;40.090;18.348;2023-08-08T14:11:11;6.88;;;1.83;;
65581;SDS011;52231;40.090;18.348;2023-08-08T14:13:39;9.95;;;1.80;;
65581;SDS011;52231;40.090;18.348;2023-08-08T14:16:08;4.50;;;1.60;;
65581;SDS011;52231;40.090;18.348;2023-08-08T14:18:36;4.32;;;1.80;;
65581;SDS011;52231;40.090;18.348;2023-08-08T14:21:04;2.90;;;1.60;;
65581;SDS011;52231;40.090;18.348;2023-08-08T14:23:33;5.40;;;1.70;;
65581;SDS011;52231;40.090;18.348;2023-08-08T14:26:01;4.05;;;1.80;;
65581;SDS011;52231;40.090;18.348;2023-08-08T14:28:29;5.97;;;1.70;;
65581;SDS011;52231;40.090;18.348;2023-08-08T14:30:57;5.93;;;1.73;;
65581;SDS011;52231;40.090;18.348;2023-08-08T14:33:26;4.90;;;2.50;;
65581;SDS011;52231;40.090;18.348;2023-08-08T14:35:55;4.80;;;1.98;;
65581;SDS011;52231;40.090;18.348;2023-08-08T14:38:24;3.13;;;1.55;;
65581;SDS011;52231;40.090;18.348;2023-08-08T14:40:53;6.88;;;1.95;;
65581;SDS011;52231;40.090;18.348;2023-08-08T14:43:21;5.55;;;1.80;;
65581;SDS011;52231;40.090;18.348;2023-08-08T14:45:51;4.03;;;1.70;;
65581;SDS011;52231;40.090;18.348;2023-08-08T14:48:19;5.60;;;2.00;;
65581;SDS011;52231;40.090;18.348;2023-08-08T14:50:47;5.72;;;1.92;;
65581;SDS011;52231;40.090;18.348;2023-08-08T14:53:16;6.05;;;1.88;;
65581;SDS011;52231;40.090;18.348;2023-08-08T14:55:47;8.98;;;2.00;;
65581;SDS011;52231;40.090;18.348;2023-08-08T14:58:16;5.45;;;1.70;;
65581;SDS011;52231;40.090;18.348;2023-08-08T15:00:47;4.30;;;1.90;;
65581;SDS011;52231;40.090;18.348;2023-08-08T15:03:16;4.97;;;1.58;;
65581;SDS011;52231;40.090;18.348;2023-08-08T15:05:46;5.30;;;1.65;;
65581;SDS011;52231;40.090;18.348;2023-08-08T15:08:19;6.63;;;1.60;;
65581;SDS011;52231;40.090;18.348;2023-08-08T15:11:07;4.85;;;2.10;;
65581;SDS011;52231;40.090;18.348;2023-08-08T15:13:36;7.65;;;1.80;;
65581;SDS011;52231;40.090;18.348;2023-08-08T15:16:04;3.70;;;1.80;;
65581;SDS011;52231;40.090;18.348;2023-08-08T15:18:33;5.68;;;1.85;;
65581;SDS011;52231;40.090;18.348;2023-08-08T15:21:02;9.38;;;1.90;;
65581;SDS011;52231;40.090;18.348;2023-08-08T15:23:31;7.40;;;2.10;;
65581;SDS011;52231;40.090;18.348;2023-08-08T15:25:59;7.80;;;2.00;;
65581;SDS011;52231;40.090;18.348;2023-08-08T15:28:28;5.68;;;2.13;;
65581;SDS011;52231;40.090;18.348;2023-08-08T15:30:56;4.82;;;2.10;;
65581;SDS011;52231;40.090;18.348;2023-08-08T15:33:25;3.20;;;1.70;;
65581;SDS011;52231;40.090;18.348;2023-08-08T15:35:54;5.35;;;1.90;;
65581;SDS011;52231;40.090;18.348;2023-08-08T15:38:23;6.63;;;2.05;;
65581;SDS011;52231;40.090;18.348;2023-08-08T15:40:52;5.07;;;1.77;;
65581;SDS011;52231;40.090;18.348;2023-08-08T15:43:20;8.30;;;2.13;;
65581;SDS011;52231;40.090;18.348;2023-08-08T15:45:48;6.30;;;2.10;;
65581;SDS011;52231;40.090;18.348;2023-08-08T15:48:16;7.35;;;2.10;;
65581;SDS011;52231;40.090;18.348;2023-08-08T15:50:45;7.22;;;2.08;;
65581;SDS011;52231;40.090;18.348;2023-08-08T15:53:13;7.15;;;2.35;;
65581;SDS011;52231;40.090;18.348;2023-08-08T15:55:41;6.60;;;2.08;;
65581;SDS011;52231;40.090;18.348;2023-08-08T15:58:10;12.20;;;2.35;;
65581;SDS011;52231;40.090;18.348;2023-08-08T16:00:39;8.10;;;2.47;;
65581;SDS011;52231;40.090;18.348;2023-08-08T16:03:07;5.60;;;2.03;;
65581;SDS011;52231;40.090;18.348;2023-08-08T16:08:03;5.32;;;1.92;;
65581;SDS011;52231;40.090;18.348;2023-08-08T16:10:34;5.72;;;2.53;;
65581;SDS011;52231;40.090;18.348;2023-08-08T16:13:02;4.88;;;2.20;;
65581;SDS011;52231;40.090;18.348;2023-08-08T16:15:31;7.63;;;2.03;;